createdAt,value
2023-04-19T00:01:31.544Z,3.67
2023-04-19T00:03:58.881Z,3.90
2023-04-19T00:06:26.476Z,3.73
2023-04-19T00:08:53.260Z,3.33
2023-04-19T00:11:20.533Z,3.33
2023-04-19T00:13:49.320Z,3.90
2023-04-19T00:16:16.952Z,3.80
2023-04-19T00:18:43.954Z,3.63
2023-04-19T00:21:11.690Z,3.90
2023-04-19T00:23:38.521Z,3.60
2023-04-19T00:26:05.672Z,3.53
2023-04-19T00:28:34.200Z,4.00
2023-04-19T00:31:01.055Z,3.47
2023-04-19T00:33:28.046Z,3.50
2023-04-19T00:35:54.859Z,4.13
2023-04-19T00:38:21.635Z,4.07
2023-04-19T00:40:48.566Z,4.10
2023-04-19T00:43:21.772Z,3.70
2023-04-19T00:45:50.071Z,4.27
2023-04-19T00:48:17.349Z,3.60
2023-04-19T00:50:45.549Z,4.17
2023-04-19T00:53:13.347Z,4.13
2023-04-19T00:55:40.541Z,4.20
2023-04-19T00:58:08.998Z,4.37
2023-04-19T01:00:37.265Z,4.00
2023-04-19T01:03:04.622Z,4.10
2023-04-19T01:05:31.814Z,4.50
2023-04-19T01:07:58.626Z,4.50
2023-04-19T01:10:26.141Z,4.67
2023-04-19T01:12:53.362Z,4.20
2023-04-19T01:15:20.772Z,4.10
2023-04-19T01:17:47.849Z,4.03
2023-04-19T01:20:15.368Z,4.37
2023-04-19T01:22:42.193Z,4.60
2023-04-19T01:25:10.591Z,4.30
2023-04-19T01:27:37.572Z,4.47
2023-04-19T01:30:05.113Z,4.27
2023-04-19T01:32:32.234Z,4.80
2023-04-19T01:34:59.490Z,4.57
2023-04-19T01:37:26.855Z,4.63
2023-04-19T01:39:53.810Z,4.40
2023-04-19T01:42:20.711Z,4.37
2023-04-19T01:44:47.921Z,4.47
2023-04-19T01:47:15.080Z,4.67
2023-04-19T01:49:42.235Z,4.27
2023-04-19T01:52:09.254Z,3.90
2023-04-19T01:54:36.029Z,4.40
2023-04-19T01:57:03.143Z,4.53
2023-04-19T01:59:30.577Z,4.60
2023-04-19T02:01:57.485Z,4.70
2023-04-19T02:04:24.471Z,5.03
2023-04-19T02:06:51.479Z,4.60
2023-04-19T02:09:18.313Z,5.20
2023-04-19T02:11:45.163Z,4.47
2023-04-19T02:14:12.057Z,5.07
2023-04-19T02:16:39.252Z,5.00
2023-04-19T02:19:06.036Z,4.90
2023-04-19T02:21:33.145Z,5.03
2023-04-19T02:24:00.013Z,5.00
2023-04-19T02:26:27.118Z,5.10
2023-04-19T02:28:54.209Z,5.00
2023-04-19T02:31:21.691Z,5.33
2023-04-19T02:33:48.573Z,4.70
2023-04-19T02:36:15.793Z,4.97
2023-04-19T02:38:42.706Z,4.90
2023-04-19T02:41:10.126Z,4.67
2023-04-19T02:43:36.945Z,4.10
2023-04-19T02:46:04.597Z,4.27
2023-04-19T02:48:31.457Z,4.13
2023-04-19T02:50:58.416Z,3.87
2023-04-19T02:53:26.274Z,4.17
2023-04-19T02:55:53.168Z,3.90
2023-04-19T02:58:20.284Z,3.63
2023-04-19T03:00:47.178Z,3.40
2023-04-19T03:03:14.280Z,3.60
2023-04-19T03:05:41.328Z,3.53
2023-04-19T03:08:08.247Z,3.17
2023-04-19T03:10:35.485Z,3.20
2023-04-19T03:13:02.303Z,3.00
2023-04-19T03:15:29.089Z,2.90
2023-04-19T03:17:56.087Z,2.73
2023-04-19T03:20:23.125Z,2.87
2023-04-19T03:22:50.270Z,2.80
2023-04-19T03:25:17.781Z,2.90
2023-04-19T03:27:45.668Z,2.60
2023-04-19T03:30:13.455Z,2.67
2023-04-19T03:32:40.693Z,2.40
2023-04-19T03:35:08.288Z,2.90
2023-04-19T03:37:35.633Z,2.67
2023-04-19T03:40:02.741Z,2.90
2023-04-19T03:42:29.839Z,2.83
2023-04-19T03:44:56.907Z,2.60
2023-04-19T03:47:24.036Z,2.53
2023-04-19T03:49:51.221Z,2.43
2023-04-19T03:52:18.093Z,2.90
2023-04-19T03:54:45.334Z,2.43
2023-04-19T03:57:15.093Z,2.60
2023-04-19T03:59:41.957Z,2.80
2023-04-19T04:02:09.292Z,2.70
2023-04-19T04:04:36.333Z,2.50
2023-04-19T04:07:03.521Z,2.90
2023-04-19T04:09:30.726Z,2.27
2023-04-19T04:11:57.530Z,2.53
2023-04-19T04:14:27.853Z,2.80
2023-04-19T04:16:54.664Z,2.13
2023-04-19T04:19:22.136Z,2.40
2023-04-19T04:21:49.486Z,2.50
2023-04-19T04:24:17.898Z,2.50
2023-04-19T04:26:44.857Z,2.10
2023-04-19T04:29:11.969Z,2.83
2023-04-19T04:31:39.107Z,2.70
2023-04-19T04:34:06.509Z,2.47
2023-04-19T04:36:33.675Z,2.50
2023-04-19T04:39:02.609Z,2.40
2023-04-19T04:41:31.477Z,2.37
2023-04-19T04:44:23.318Z,2.20
2023-04-19T04:46:47.469Z,2.67
2023-04-19T04:49:14.896Z,2.30
2023-04-19T04:51:42.113Z,2.40
2023-04-19T04:54:08.864Z,2.50
2023-04-19T04:56:36.259Z,2.37
2023-04-19T04:59:06.470Z,2.20
2023-04-19T05:01:33.434Z,2.37
2023-04-19T05:04:01.454Z,2.80
2023-04-19T05:06:28.299Z,2.63
2023-04-19T05:08:55.137Z,3.03
2023-04-19T05:11:22.199Z,3.10
2023-04-19T05:13:48.994Z,2.50
2023-04-19T05:16:16.452Z,2.33
2023-04-19T05:18:43.509Z,2.40
2023-04-19T05:21:10.492Z,2.10
2023-04-19T05:23:38.354Z,2.13
2023-04-19T05:26:06.288Z,2.13
2023-04-19T05:28:33.356Z,2.13
2023-04-19T05:31:00.300Z,2.37
2023-04-19T05:33:27.378Z,2.00
2023-04-19T05:35:54.981Z,2.20
2023-04-19T05:38:22.469Z,2.13
2023-04-19T05:40:49.453Z,2.27
2023-04-19T05:43:16.286Z,2.43
2023-04-19T05:45:43.566Z,2.40
2023-04-19T05:48:10.787Z,2.30
2023-04-19T05:50:37.672Z,2.37
2023-04-19T05:53:05.082Z,2.60
2023-04-19T05:55:32.147Z,2.30
2023-04-19T05:57:59.248Z,2.50
2023-04-19T06:00:26.699Z,2.50
2023-04-19T06:02:53.847Z,2.73
2023-04-19T06:05:21.239Z,2.70
2023-04-19T06:07:55.284Z,2.57
2023-04-19T06:10:36.735Z,2.50
2023-04-19T06:13:08.167Z,2.13
2023-04-19T06:15:35.109Z,2.30
2023-04-19T06:18:01.876Z,2.53
2023-04-19T06:20:28.865Z,2.50
2023-04-19T06:22:55.760Z,2.40
2023-04-19T06:25:22.695Z,2.53
2023-04-19T06:27:49.634Z,2.40
2023-04-19T06:30:18.020Z,2.10
2023-04-19T06:32:44.856Z,2.30
2023-04-19T06:35:12.058Z,2.30
2023-04-19T06:37:38.899Z,2.60
2023-04-19T06:40:08.191Z,2.33
2023-04-19T06:42:35.889Z,2.30
2023-04-19T06:45:02.775Z,2.30
2023-04-19T06:47:30.809Z,2.20
2023-04-19T06:50:01.980Z,2.13
2023-04-19T06:52:30.661Z,2.40
2023-04-19T06:55:00.781Z,2.20
2023-04-19T06:57:28.085Z,2.63
2023-04-19T06:59:55.960Z,1.80
2023-04-19T07:02:23.040Z,1.90
2023-04-19T07:04:50.534Z,2.27
2023-04-19T07:07:17.843Z,1.90
2023-04-19T07:09:44.700Z,1.90
2023-04-19T07:12:12.564Z,1.53
2023-04-19T07:14:41.802Z,1.90
2023-04-19T07:17:08.868Z,2.30
2023-04-19T07:19:36.837Z,2.10
2023-04-19T07:22:06.347Z,2.27
2023-04-19T07:24:33.426Z,1.97
2023-04-19T07:27:05.914Z,1.90
2023-04-19T07:29:41.390Z,2.10
2023-04-19T07:32:08.753Z,2.10
2023-04-19T07:34:38.485Z,1.93
2023-04-19T07:37:05.385Z,1.90
2023-04-19T07:39:32.388Z,2.00
2023-04-19T07:42:01.818Z,2.03
2023-04-19T07:44:33.200Z,1.90
2023-04-19T07:47:01.196Z,2.17
2023-04-19T07:49:34.308Z,2.30
2023-04-19T07:52:02.100Z,2.10
2023-04-19T07:54:30.286Z,1.80
2023-04-19T07:56:59.077Z,2.13
2023-04-19T07:59:26.100Z,1.90
2023-04-19T08:01:55.568Z,2.00
2023-04-19T08:04:24.274Z,2.10
2023-04-19T08:06:53.484Z,1.83
2023-04-19T08:09:20.420Z,1.60
2023-04-19T08:11:47.524Z,2.10
2023-04-19T08:14:27.128Z,2.20
2023-04-19T08:19:30.167Z,2.03
2023-04-19T08:21:57.521Z,3.00
2023-04-19T08:24:24.446Z,2.60
2023-04-19T08:26:54.815Z,2.17
2023-04-19T08:29:25.029Z,1.93
2023-04-19T08:31:52.214Z,2.10
2023-04-19T08:34:22.538Z,2.27
2023-04-19T08:37:00.185Z,1.77
2023-04-19T08:39:34.024Z,2.37
2023-04-19T08:42:17.702Z,2.33
2023-04-19T08:45:23.448Z,2.20
2023-04-19T08:47:58.748Z,2.17
2023-04-19T08:50:33.246Z,1.77
2023-04-19T08:55:33.009Z,2.30
2023-04-19T08:58:04.048Z,1.93
2023-04-19T09:00:40.056Z,1.87
2023-04-19T09:03:09.251Z,1.90
2023-04-19T09:05:36.381Z,2.13
2023-04-19T09:08:22.779Z,2.00
2023-04-19T09:11:01.149Z,2.13
2023-04-19T09:13:29.931Z,2.33
2023-04-19T09:16:04.785Z,2.17
2023-04-19T09:18:35.847Z,2.00
2023-04-19T09:21:05.790Z,1.83
2023-04-19T09:23:33.102Z,2.40
2023-04-19T09:26:22.727Z,2.30
2023-04-19T09:29:05.313Z,2.10
2023-04-19T09:31:50.626Z,2.30
2023-04-19T09:34:22.816Z,1.90
2023-04-19T09:36:54.602Z,1.90
2023-04-19T09:39:37.628Z,2.20
2023-04-19T09:42:05.384Z,1.90
2023-04-19T09:45:02.192Z,1.93
2023-04-19T09:47:25.610Z,2.00
2023-04-19T09:50:27.519Z,1.90
2023-04-19T09:52:56.599Z,1.60
2023-04-19T09:55:28.189Z,1.73
2023-04-19T09:57:56.958Z,2.10
2023-04-19T10:00:24.148Z,2.13
2023-04-19T10:02:59.066Z,2.43
2023-04-19T10:05:26.835Z,2.37
2023-04-19T10:07:59.960Z,2.00
2023-04-19T10:10:41.413Z,2.23
2023-04-19T10:15:52.604Z,2.13
2023-04-19T10:18:23.057Z,2.17
2023-04-19T10:21:02.602Z,1.77
2023-04-19T10:23:30.232Z,1.97
2023-04-19T10:25:58.599Z,2.37
2023-04-19T10:28:28.547Z,2.30
2023-04-19T10:31:04.540Z,2.00
2023-04-19T10:33:36.970Z,2.10
2023-04-19T10:36:04.950Z,2.03
2023-04-19T10:38:52.715Z,1.63
2023-04-19T10:41:19.953Z,1.80
2023-04-19T10:44:12.987Z,1.95
2023-04-19T10:46:40.991Z,1.80
2023-04-19T10:49:09.875Z,1.95
2023-04-19T10:51:41.908Z,1.90
2023-04-19T10:54:10.371Z,1.55
2023-04-19T10:56:38.499Z,1.83
2023-04-19T10:59:08.353Z,1.95
2023-04-19T11:01:46.929Z,1.88
2023-04-19T11:04:15.859Z,1.83
2023-04-19T11:07:09.124Z,1.80
2023-04-19T11:09:38.790Z,1.85
2023-04-19T11:12:17.307Z,2.00
2023-04-19T11:14:57.850Z,1.85
2023-04-19T11:17:34.178Z,1.90
2023-04-19T11:20:03.571Z,1.90
2023-04-19T11:22:37.753Z,1.90
2023-04-19T11:25:08.886Z,1.90
2023-04-19T11:27:36.313Z,2.20
2023-04-19T11:30:21.913Z,2.03
2023-04-19T11:32:57.671Z,1.80
2023-04-19T11:35:27.270Z,1.90
2023-04-19T11:37:56.422Z,1.97
2023-04-19T11:40:26.177Z,1.70
2023-04-19T11:43:04.540Z,1.90
2023-04-19T11:45:39.798Z,1.80
2023-04-19T11:48:13.964Z,1.87
2023-04-19T11:50:41.761Z,1.60
2023-04-19T11:53:18.159Z,2.10
2023-04-19T11:55:46.830Z,1.90
2023-04-19T11:58:23.944Z,2.00
2023-04-19T12:00:51.468Z,1.83
2023-04-19T12:03:26.071Z,2.00
2023-04-19T12:05:58.393Z,1.80
2023-04-19T12:08:52.926Z,2.10
2023-04-19T12:11:23.599Z,1.90
2023-04-19T12:14:19.906Z,1.73
2023-04-19T12:16:47.636Z,1.70
2023-04-19T12:19:20.937Z,1.60
2023-04-19T12:21:48.193Z,1.50
2023-04-19T12:24:21.194Z,1.73
2023-04-19T12:27:04.594Z,1.50
2023-04-19T12:29:33.229Z,1.80
2023-04-19T12:32:01.720Z,1.90
2023-04-19T12:34:29.555Z,1.70
2023-04-19T12:36:57.438Z,1.50
2023-04-19T12:39:29.003Z,1.60
2023-04-19T12:41:56.784Z,1.60
2023-04-19T12:44:24.607Z,1.53
2023-04-19T12:46:51.665Z,1.80
2023-04-19T12:49:20.449Z,1.30
2023-04-19T12:51:48.475Z,1.53
2023-04-19T12:54:16.995Z,1.30
2023-04-19T12:56:43.892Z,1.47
2023-04-19T12:59:12.046Z,1.40
2023-04-19T13:01:39.641Z,1.33
2023-04-19T13:04:12.032Z,1.10
2023-04-19T13:06:41.454Z,1.23
2023-04-19T13:09:14.321Z,1.07
2023-04-19T13:11:42.429Z,1.57
2023-04-19T13:14:09.434Z,1.30
2023-04-19T13:16:36.716Z,1.30
2023-04-19T13:19:03.745Z,1.43
2023-04-19T13:21:31.717Z,1.20
2023-04-19T13:23:59.301Z,1.43
2023-04-19T13:26:26.650Z,1.40
2023-04-19T13:28:59.467Z,1.60
2023-04-19T13:31:27.283Z,1.50
2023-04-19T13:34:00.686Z,1.50
2023-04-19T13:36:28.264Z,1.70
2023-04-19T13:38:55.198Z,1.57
2023-04-19T13:41:22.628Z,1.37
2023-04-19T13:43:49.433Z,1.23
2023-04-19T13:46:16.252Z,1.40
2023-04-19T13:48:43.309Z,1.40
2023-04-19T13:51:10.218Z,1.50
2023-04-19T13:53:40.900Z,1.70
2023-04-19T13:56:11.114Z,1.50
2023-04-19T13:58:38.066Z,1.47
2023-04-19T14:01:05.126Z,1.40
2023-04-19T14:03:37.634Z,1.93
2023-04-19T14:06:04.992Z,1.33
2023-04-19T14:08:31.775Z,1.47
2023-04-19T14:11:04.464Z,1.40
2023-04-19T14:13:31.570Z,1.90
2023-04-19T14:15:58.435Z,1.60
2023-04-19T14:18:25.852Z,1.40
2023-04-19T14:20:52.713Z,1.60
2023-04-19T14:23:19.805Z,1.50
2023-04-19T14:25:47.361Z,2.10
2023-04-19T14:28:14.687Z,1.73
2023-04-19T14:30:41.571Z,1.60
2023-04-19T14:33:09.106Z,1.70
2023-04-19T14:35:36.272Z,1.57
2023-04-19T14:38:03.550Z,1.80
2023-04-19T14:40:30.843Z,1.87
2023-04-19T14:43:01.349Z,1.70
2023-04-19T14:45:30.968Z,2.33
2023-04-19T14:47:58.362Z,2.00
2023-04-19T14:50:25.752Z,2.00
2023-04-19T14:52:54.852Z,2.13
2023-04-19T14:55:23.636Z,2.10
2023-04-19T14:57:51.188Z,1.87
2023-04-19T15:00:19.611Z,1.83
2023-04-19T15:02:46.564Z,2.33
2023-04-19T15:05:16.543Z,2.50
2023-04-19T15:07:44.037Z,2.00
2023-04-19T15:10:11.011Z,2.03
2023-04-19T15:12:38.420Z,2.63
2023-04-19T15:15:06.137Z,2.20
2023-04-19T15:17:33.082Z,1.90
2023-04-19T15:20:00.289Z,1.90
2023-04-19T15:22:27.194Z,2.00
2023-04-19T15:24:54.353Z,2.10
2023-04-19T15:27:21.602Z,2.03
2023-04-19T15:29:48.430Z,2.30
2023-04-19T15:32:15.844Z,1.90
2023-04-19T15:34:42.849Z,2.30
2023-04-19T15:37:17.662Z,2.37
2023-04-19T15:39:44.812Z,2.50
2023-04-19T15:42:11.649Z,2.37
2023-04-19T15:44:38.690Z,2.40
2023-04-19T15:47:08.528Z,2.40
2023-04-19T15:49:35.876Z,2.57
2023-04-19T15:52:02.659Z,2.40
2023-04-19T15:54:29.851Z,2.20
2023-04-19T15:56:57.308Z,2.10
2023-04-19T15:59:24.133Z,2.47
2023-04-19T16:01:51.266Z,2.20
2023-04-19T16:04:26.061Z,2.30
2023-04-19T16:06:54.301Z,2.30
2023-04-19T16:09:23.121Z,2.20
2023-04-19T16:11:49.962Z,2.40
2023-04-19T16:14:17.245Z,2.60
2023-04-19T16:16:44.185Z,2.50
2023-04-19T16:19:11.068Z,2.47
2023-04-19T16:21:38.326Z,2.70
2023-04-19T16:24:05.493Z,2.57
2023-04-19T16:26:32.482Z,2.47
2023-04-19T16:28:59.561Z,2.57
2023-04-19T16:31:26.380Z,2.87
2023-04-19T16:33:53.360Z,2.43
2023-04-19T16:36:20.320Z,2.20
2023-04-19T16:38:47.426Z,2.30
2023-04-19T16:41:14.391Z,2.73
2023-04-19T16:43:41.475Z,2.23
2023-04-19T16:46:08.658Z,2.10
2023-04-19T16:48:35.810Z,2.30
2023-04-19T16:51:02.857Z,2.10
2023-04-19T16:53:31.286Z,2.10
2023-04-19T16:55:59.778Z,2.10
2023-04-19T16:58:27.253Z,2.20
2023-04-19T17:00:54.076Z,2.73
2023-04-19T17:03:21.486Z,2.37
2023-04-19T17:05:48.606Z,2.10
2023-04-19T17:08:15.397Z,2.27
2023-04-19T17:10:42.995Z,2.10
2023-04-19T17:13:10.199Z,2.27
2023-04-19T17:15:41.571Z,2.20
2023-04-19T17:18:08.823Z,2.20
2023-04-19T17:20:36.124Z,2.30
2023-04-19T17:23:02.850Z,2.80
2023-04-19T17:25:30.011Z,2.30
2023-04-19T17:27:57.368Z,2.53
2023-04-19T17:30:24.351Z,1.90
2023-04-19T17:32:57.605Z,2.10
2023-04-19T17:35:31.067Z,2.03
2023-04-19T17:37:58.241Z,1.97
2023-04-19T17:40:26.904Z,2.27
2023-04-19T17:42:55.972Z,1.90
2023-04-19T17:45:24.784Z,1.90
2023-04-19T17:47:55.307Z,2.43
2023-04-19T17:50:23.285Z,1.83
2023-04-19T17:52:50.597Z,1.83
2023-04-19T17:55:17.780Z,2.20
2023-04-19T17:57:46.668Z,2.00
2023-04-19T18:00:14.516Z,2.20
2023-04-19T18:02:41.551Z,1.87
2023-04-19T18:05:09.006Z,2.00
2023-04-19T18:07:39.125Z,1.70
2023-04-19T18:10:06.891Z,1.70
2023-04-19T18:12:34.176Z,1.80
2023-04-19T18:15:01.222Z,1.63
2023-04-19T18:17:28.236Z,2.07
2023-04-19T18:19:55.233Z,1.87
2023-04-19T18:22:22.171Z,2.00
2023-04-19T18:24:51.151Z,2.10
2023-04-19T18:27:18.734Z,1.70
2023-04-19T18:29:45.711Z,1.87
2023-04-19T18:32:12.652Z,2.00
2023-04-19T18:34:39.752Z,2.10
2023-04-19T18:37:15.145Z,1.87
2023-04-19T18:39:43.183Z,2.00
2023-04-19T18:42:10.181Z,2.00
2023-04-19T18:44:53.112Z,2.10
2023-04-19T18:47:21.558Z,2.20
2023-04-19T18:50:02.797Z,2.20
2023-04-19T18:52:34.756Z,1.90
2023-04-19T18:55:01.705Z,2.20
2023-04-19T18:57:30.479Z,2.10
2023-04-19T19:00:01.530Z,2.33
2023-04-19T19:02:28.694Z,2.37
2023-04-19T19:04:58.274Z,2.10
2023-04-19T19:10:06.389Z,2.17
2023-04-19T19:12:48.410Z,2.30
2023-04-19T19:15:15.963Z,2.20
2023-04-19T19:17:43.362Z,2.27
2023-04-19T19:20:11.110Z,2.47
2023-04-19T19:23:00.140Z,2.57
2023-04-19T19:25:27.158Z,2.97
2023-04-19T19:30:26.213Z,2.77
2023-04-19T19:32:53.045Z,2.50
2023-04-19T19:35:19.852Z,2.57
2023-04-19T19:37:47.076Z,2.63
2023-04-19T19:40:14.996Z,2.50
2023-04-19T19:42:42.146Z,3.10
2023-04-19T19:45:10.114Z,2.30
2023-04-19T19:47:44.483Z,2.90
2023-04-19T19:50:57.576Z,2.53
2023-04-19T19:53:01.632Z,2.90
2023-04-19T19:55:29.177Z,2.53
2023-04-19T20:02:58.840Z,2.40
2023-04-19T20:05:26.576Z,2.40
2023-04-19T20:08:10.296Z,1.90
2023-04-19T20:10:38.964Z,2.43
2023-04-19T20:13:06.742Z,2.40
2023-04-19T20:15:38.184Z,2.20
2023-04-19T20:18:05.710Z,2.40
2023-04-19T20:20:33.239Z,2.20
2023-04-19T20:23:00.590Z,2.43
2023-04-19T20:25:27.758Z,2.50
2023-04-19T20:27:55.061Z,2.47
2023-04-19T20:30:22.252Z,2.40
2023-04-19T20:32:50.416Z,2.27
2023-04-19T20:35:18.132Z,3.03
2023-04-19T20:37:51.056Z,2.30
2023-04-19T20:40:18.573Z,2.33
2023-04-19T20:42:45.561Z,2.40
2023-04-19T20:45:16.021Z,2.33
2023-04-19T20:47:43.196Z,2.67
2023-04-19T20:50:11.047Z,2.60
2023-04-19T20:52:38.719Z,2.10
2023-04-19T20:55:06.234Z,1.90
2023-04-19T20:57:33.095Z,2.20
2023-04-19T21:00:00.603Z,2.30
2023-04-19T21:02:28.322Z,2.30
2023-04-19T21:04:55.269Z,2.57
2023-04-19T21:07:22.653Z,2.30
2023-04-19T21:09:49.490Z,2.20
2023-04-19T21:12:17.259Z,2.03
2023-04-19T21:14:46.513Z,2.50
2023-04-19T21:17:14.700Z,2.37
2023-04-19T21:19:41.530Z,2.40
2023-04-19T21:22:08.843Z,2.67
2023-04-19T21:24:36.021Z,2.30
2023-04-19T21:27:03.317Z,2.57
2023-04-19T21:29:30.334Z,2.03
2023-04-19T21:31:57.308Z,2.67
2023-04-19T21:34:24.143Z,2.67
2023-04-19T21:36:51.566Z,2.60
2023-04-19T21:39:18.535Z,2.63
2023-04-19T21:41:45.895Z,2.70
2023-04-19T21:44:12.843Z,2.30
2023-04-19T21:46:39.758Z,2.70
2023-04-19T21:49:07.268Z,2.57
2023-04-19T21:51:34.125Z,2.80
2023-04-19T21:54:01.071Z,3.17
2023-04-19T21:56:31.043Z,2.80
2023-04-19T21:58:57.908Z,2.80
2023-04-19T22:01:25.014Z,2.83
2023-04-19T22:03:52.111Z,2.90
2023-04-19T22:06:19.408Z,2.83
2023-04-19T22:08:48.739Z,2.97
2023-04-19T22:11:24.982Z,3.00
2023-04-19T22:13:52.130Z,3.27
2023-04-19T22:16:19.328Z,2.50
2023-04-19T22:18:46.357Z,2.63
2023-04-19T22:21:14.430Z,2.57
2023-04-19T22:23:42.112Z,2.70
2023-04-19T22:26:09.227Z,2.47
2023-04-19T22:28:36.283Z,2.40
2023-04-19T22:31:03.518Z,2.80
2023-04-19T22:33:30.520Z,2.60
2023-04-19T22:35:57.307Z,2.63
2023-04-19T22:38:24.113Z,3.10
2023-04-19T22:40:51.283Z,2.87
2023-04-19T22:43:18.214Z,2.33
2023-04-19T22:45:48.052Z,2.50
2023-04-19T22:48:15.771Z,2.60
2023-04-19T22:50:43.501Z,1.97
2023-04-19T22:53:12.585Z,2.00
2023-04-19T22:55:40.213Z,2.40
2023-04-19T22:58:07.956Z,1.93
2023-04-19T23:00:36.381Z,2.17
2023-04-19T23:03:03.953Z,2.00
2023-04-19T23:05:32.371Z,2.30
2023-04-19T23:07:59.548Z,2.20
2023-04-19T23:10:27.124Z,2.27
2023-04-19T23:12:54.265Z,2.13
2023-04-19T23:15:22.645Z,2.00
2023-04-19T23:17:50.134Z,2.07
2023-04-19T23:20:17.582Z,2.07
2023-04-19T23:22:50.073Z,2.13
2023-04-19T23:25:17.114Z,1.97
2023-04-19T23:27:43.975Z,2.07
2023-04-19T23:30:14.145Z,2.17
2023-04-19T23:32:41.058Z,2.50
2023-04-19T23:35:08.252Z,2.07
2023-04-19T23:37:35.387Z,2.20
2023-04-19T23:40:02.500Z,1.67
2023-04-19T23:42:29.278Z,2.43
2023-04-19T23:44:57.180Z,2.20
2023-04-19T23:47:24.257Z,1.90
2023-04-19T23:49:51.384Z,2.27
2023-04-19T23:52:18.473Z,1.90
2023-04-19T23:54:45.341Z,2.23
2023-04-19T23:57:12.213Z,2.33
2023-04-19T23:59:42.011Z,2.43
